createdAt,value
2023-05-15T00:02:38.345Z,63.31
2023-05-15T00:07:30.572Z,64.11
2023-05-15T00:12:22.417Z,65.19
2023-05-15T00:17:14.590Z,65.94
2023-05-15T00:22:06.593Z,66.98
2023-05-15T00:27:00.567Z,67.57
2023-05-15T00:31:52.684Z,68.33
2023-05-15T00:36:45.413Z,69.26
2023-05-15T00:41:39.994Z,69.43
2023-05-15T00:46:32.719Z,70.75
2023-05-15T00:51:27.883Z,71.52
2023-05-15T00:56:21.498Z,72.41
2023-05-15T01:01:16.239Z,72.57
2023-05-15T01:06:08.419Z,73.39
2023-05-15T01:11:02.756Z,74.13
2023-05-15T01:15:55.625Z,74.73
2023-05-15T01:20:55.766Z,75.45
2023-05-15T01:26:06.193Z,75.87
2023-05-15T01:31:06.429Z,75.87
2023-05-15T01:36:18.462Z,76.14
2023-05-15T01:41:22.437Z,75.88
2023-05-15T01:46:21.508Z,75.05
2023-05-15T01:51:17.886Z,74.30
2023-05-15T01:56:12.619Z,73.34
2023-05-15T02:01:06.993Z,72.97
2023-05-15T02:06:05.166Z,72.53
2023-05-15T02:11:02.811Z,72.08
2023-05-15T02:15:54.900Z,71.84
2023-05-15T02:20:47.837Z,71.53
2023-05-15T02:26:10.085Z,71.64
2023-05-15T02:31:07.259Z,71.66
2023-05-15T02:36:14.644Z,71.36
2023-05-15T02:41:07.971Z,70.80
2023-05-15T02:46:00.657Z,70.74
2023-05-15T02:50:53.438Z,70.45
2023-05-15T02:55:45.386Z,70.32
2023-05-15T03:00:37.297Z,69.94
2023-05-15T03:05:30.598Z,70.26
2023-05-15T03:10:24.279Z,70.70
2023-05-15T03:15:16.275Z,70.13
2023-05-15T03:20:09.058Z,69.90
2023-05-15T03:25:06.332Z,70.79
2023-05-15T03:29:58.296Z,70.91
2023-05-15T03:34:52.587Z,70.24
2023-05-15T03:39:46.705Z,70.31
2023-05-15T03:44:38.652Z,69.55
2023-05-15T03:49:30.678Z,70.17
2023-05-15T03:54:24.405Z,70.00
2023-05-15T03:59:17.880Z,69.82
2023-05-15T04:04:10.732Z,69.60
2023-05-15T04:09:02.786Z,69.66
2023-05-15T04:13:55.588Z,69.10
2023-05-15T04:18:47.841Z,68.94
2023-05-15T04:23:42.517Z,69.05
2023-05-15T04:28:34.790Z,68.51
2023-05-15T04:33:26.667Z,68.66
2023-05-15T04:38:18.614Z,68.46
2023-05-15T04:43:10.640Z,67.31
2023-05-15T04:48:02.897Z,67.77
2023-05-15T04:52:55.020Z,67.26
2023-05-15T04:57:48.111Z,66.20
2023-05-15T05:02:43.954Z,66.49
2023-05-15T05:07:36.169Z,66.09
2023-05-15T05:12:28.690Z,65.99
2023-05-15T05:17:20.580Z,65.64
2023-05-15T05:22:14.284Z,65.38
2023-05-15T05:27:06.762Z,65.21
2023-05-15T05:32:01.736Z,65.39
2023-05-15T05:36:54.067Z,65.49
2023-05-15T05:41:46.120Z,65.02
2023-05-15T05:46:38.145Z,64.76
2023-05-15T05:51:32.592Z,65.04
2023-05-15T05:56:24.483Z,64.45
2023-05-15T06:01:16.978Z,64.09
2023-05-15T06:06:09.045Z,63.77
2023-05-15T06:11:01.738Z,63.18
2023-05-15T06:15:53.616Z,62.71
2023-05-15T06:20:46.572Z,63.11
2023-05-15T06:25:38.714Z,62.87
2023-05-15T06:30:32.515Z,63.35
2023-05-15T06:35:25.649Z,62.56
2023-05-15T06:40:17.654Z,62.33
2023-05-15T06:45:10.837Z,61.01
2023-05-15T06:50:06.869Z,60.40
2023-05-15T06:54:58.751Z,60.22
2023-05-15T06:59:51.104Z,59.58
2023-05-15T07:04:43.426Z,59.25
2023-05-15T07:09:36.869Z,59.32
2023-05-15T07:14:29.054Z,59.46
2023-05-15T07:19:21.252Z,59.76
2023-05-15T07:24:13.184Z,59.91
2023-05-15T07:29:07.489Z,60.09
2023-05-15T07:33:59.501Z,60.73
2023-05-15T07:38:54.230Z,60.56
2023-05-15T07:43:46.289Z,60.74
2023-05-15T07:48:43.553Z,59.97
2023-05-15T07:53:35.645Z,59.65
2023-05-15T07:58:27.537Z,58.37
2023-05-15T08:03:19.681Z,58.36
2023-05-15T08:08:11.812Z,58.20
2023-05-15T08:13:03.710Z,57.82
2023-05-15T08:17:57.984Z,57.76
2023-05-15T08:22:49.845Z,57.87
2023-05-15T08:27:41.823Z,56.61
2023-05-15T08:32:33.725Z,55.38
2023-05-15T08:37:26.724Z,54.52
2023-05-15T08:42:24.315Z,53.46
2023-05-15T08:47:16.859Z,52.65
2023-05-15T08:52:09.475Z,51.13
2023-05-15T08:57:03.489Z,40.48
2023-05-15T09:01:57.189Z,38.08
2023-05-15T09:06:50.724Z,35.79
2023-05-15T09:11:45.499Z,33.74
2023-05-15T09:16:39.524Z,35.10
2023-05-15T09:21:31.748Z,32.87
2023-05-15T09:26:24.917Z,31.10
2023-05-15T09:31:19.790Z,29.24
2023-05-15T09:36:21.831Z,28.16
2023-05-15T09:41:14.035Z,30.12
2023-05-15T09:46:08.960Z,31.45
2023-05-15T09:51:01.883Z,32.89
2023-05-15T09:55:56.786Z,34.41
2023-05-15T10:00:49.775Z,34.88
2023-05-15T10:05:43.758Z,35.04
2023-05-15T10:10:36.382Z,35.66
2023-05-15T10:15:29.232Z,36.36
2023-05-15T10:20:23.986Z,36.17
2023-05-15T10:25:36.969Z,37.98
2023-05-15T10:30:29.205Z,36.93
2023-05-15T10:35:23.780Z,37.40
2023-05-15T10:40:17.398Z,37.25
2023-05-15T10:45:10.884Z,37.25
2023-05-15T10:50:04.886Z,36.88
2023-05-15T10:54:57.774Z,35.91
2023-05-15T10:59:50.772Z,34.18
2023-05-15T11:04:45.005Z,35.67
2023-05-15T11:09:40.440Z,35.48
2023-05-15T11:14:36.662Z,36.53
2023-05-15T11:19:28.556Z,36.73
2023-05-15T11:24:21.442Z,37.37
2023-05-15T11:29:19.595Z,36.93
2023-05-15T11:34:13.838Z,36.09
2023-05-15T11:39:12.302Z,36.36
2023-05-15T11:44:05.048Z,36.51
2023-05-15T11:48:58.388Z,36.45
2023-05-15T11:53:54.615Z,36.11
2023-05-15T11:58:51.056Z,35.40
2023-05-15T12:03:43.194Z,34.19
2023-05-15T12:08:37.587Z,34.79
2023-05-15T12:13:33.237Z,34.20
2023-05-15T12:18:25.566Z,33.22
2023-05-15T12:23:20.535Z,30.95
2023-05-15T12:28:13.003Z,32.48
2023-05-15T12:33:07.053Z,32.93
2023-05-15T12:37:58.970Z,34.77
2023-05-15T12:43:00.788Z,34.37
2023-05-15T12:47:52.678Z,32.76
2023-05-15T12:52:51.574Z,33.07
2023-05-15T12:57:44.898Z,31.60
2023-05-15T13:02:37.974Z,32.56
2023-05-15T13:07:30.322Z,32.81
2023-05-15T13:12:23.900Z,32.04
2023-05-15T13:17:16.003Z,33.18
2023-05-15T13:22:09.914Z,32.38
2023-05-15T13:27:01.875Z,31.05
2023-05-15T13:31:53.810Z,31.80
2023-05-15T13:36:47.358Z,31.55
2023-05-15T13:41:43.096Z,31.29
2023-05-15T13:46:35.099Z,32.74
2023-05-15T13:51:29.605Z,32.55
2023-05-15T13:56:22.531Z,31.20
2023-05-15T14:01:15.283Z,30.87
2023-05-15T14:06:07.308Z,31.18
2023-05-15T14:11:01.656Z,31.54
2023-05-15T14:15:53.768Z,32.34
2023-05-15T14:20:45.768Z,32.51
2023-05-15T14:25:38.597Z,34.59
2023-05-15T14:30:32.239Z,36.35
2023-05-15T14:35:24.152Z,38.11
2023-05-15T14:40:15.979Z,39.46
2023-05-15T14:45:08.623Z,39.19
2023-05-15T14:50:01.480Z,38.13
2023-05-15T14:55:07.784Z,35.99
2023-05-15T15:00:01.162Z,36.53
2023-05-15T15:04:54.238Z,35.59
2023-05-15T15:09:51.083Z,35.42
2023-05-15T15:14:42.920Z,37.79
2023-05-15T15:19:36.531Z,38.50
2023-05-15T15:24:29.499Z,38.00
2023-05-15T15:29:21.469Z,38.27
2023-05-15T15:34:14.500Z,38.60
2023-05-15T15:39:09.866Z,38.62
2023-05-15T15:44:01.737Z,38.12
2023-05-15T15:48:54.006Z,39.05
2023-05-15T15:53:45.914Z,39.00
2023-05-15T15:58:38.084Z,39.05
2023-05-15T16:03:31.511Z,40.67
2023-05-15T16:08:25.085Z,40.88
2023-05-15T16:13:17.049Z,41.46
2023-05-15T16:18:09.018Z,43.38
2023-05-15T16:23:05.743Z,44.24
2023-05-15T16:27:58.608Z,44.71
2023-05-15T16:32:51.097Z,45.54
2023-05-15T16:37:44.863Z,47.18
2023-05-15T16:42:38.746Z,47.48
2023-05-15T16:47:32.404Z,47.34
2023-05-15T16:52:24.519Z,47.49
2023-05-15T16:57:17.153Z,47.46
2023-05-15T17:02:10.506Z,48.61
2023-05-15T17:07:05.639Z,49.13
2023-05-15T17:11:57.456Z,49.17
2023-05-15T17:16:50.894Z,49.31
2023-05-15T17:21:43.329Z,49.28
2023-05-15T17:26:36.123Z,50.10
2023-05-15T17:31:29.678Z,50.41
2023-05-15T17:36:21.810Z,50.08
2023-05-15T17:41:13.715Z,49.30
2023-05-15T17:46:06.358Z,48.88
2023-05-15T17:50:59.162Z,49.18
2023-05-15T17:55:54.944Z,50.29
2023-05-15T18:00:46.908Z,51.12
2023-05-15T18:05:39.528Z,52.20
2023-05-15T18:10:32.063Z,52.73
2023-05-15T18:15:25.985Z,54.39
2023-05-15T18:20:18.442Z,55.37
2023-05-15T18:25:13.503Z,55.42
2023-05-15T18:30:06.412Z,55.80
2023-05-15T18:34:59.104Z,56.01
2023-05-15T18:39:52.047Z,55.99
2023-05-15T18:44:45.996Z,56.04
2023-05-15T18:49:38.621Z,57.45
2023-05-15T18:54:31.860Z,56.89
2023-05-15T18:59:23.751Z,57.46
2023-05-15T19:04:16.654Z,57.52
2023-05-15T19:09:09.599Z,57.98
2023-05-15T19:14:02.521Z,58.85
2023-05-15T19:18:55.730Z,58.54
2023-05-15T19:23:50.593Z,58.87
2023-05-15T19:28:44.145Z,58.95
2023-05-15T19:33:37.015Z,59.60
2023-05-15T19:38:28.969Z,59.82
2023-05-15T19:43:22.743Z,60.28
2023-05-15T19:48:14.562Z,60.30
2023-05-15T19:53:06.621Z,60.26
2023-05-15T19:58:02.412Z,61.01
2023-05-15T20:02:55.053Z,60.25
2023-05-15T20:07:47.787Z,61.47
2023-05-15T20:12:42.660Z,61.55
2023-05-15T20:17:34.663Z,62.15
2023-05-15T20:22:26.693Z,61.83
2023-05-15T20:27:20.132Z,62.10
2023-05-15T20:32:13.319Z,62.27
2023-05-15T20:37:05.761Z,61.97
2023-05-15T20:41:58.948Z,62.04
2023-05-15T20:46:52.320Z,60.95
2023-05-15T20:51:48.808Z,60.80
2023-05-15T20:56:41.237Z,60.11
2023-05-15T21:01:36.581Z,60.00
2023-05-15T21:06:28.462Z,60.38
2023-05-15T21:11:20.340Z,61.21
2023-05-15T21:16:12.131Z,61.05
2023-05-15T21:21:09.294Z,60.79
2023-05-15T21:26:05.925Z,60.56
2023-05-15T21:30:57.819Z,60.43
2023-05-15T21:35:53.075Z,60.74
2023-05-15T21:40:45.041Z,60.86
2023-05-15T21:45:36.884Z,60.84
2023-05-15T21:50:30.844Z,60.95
2023-05-15T21:55:25.620Z,61.12
2023-05-15T22:00:19.614Z,61.69
2023-05-15T22:05:12.398Z,62.12
2023-05-15T22:10:06.351Z,62.06
2023-05-15T22:14:59.907Z,62.23
2023-05-15T22:19:53.072Z,63.02
2023-05-15T22:24:44.896Z,62.91
2023-05-15T22:29:37.107Z,62.91
2023-05-15T22:34:30.034Z,63.26
2023-05-15T22:39:25.326Z,63.12
2023-05-15T22:44:18.065Z,62.98
2023-05-15T22:49:24.283Z,62.70
2023-05-15T22:54:16.094Z,63.18
2023-05-15T22:59:08.005Z,63.36
2023-05-15T23:03:59.846Z,63.58
2023-05-15T23:08:52.908Z,63.81
2023-05-15T23:13:44.872Z,64.23
2023-05-15T23:18:36.688Z,64.14
2023-05-15T23:23:28.545Z,64.47
2023-05-15T23:28:23.099Z,64.33
2023-05-15T23:33:17.235Z,64.96
2023-05-15T23:38:09.934Z,66.75
2023-05-15T23:43:01.776Z,68.43
2023-05-15T23:47:54.116Z,69.52
2023-05-15T23:52:46.406Z,71.28
2023-05-15T23:57:40.349Z,73.47
